Latest Coastal Weather Observations for Dennes Point

IDT60701

Issued at 4:55 am EST Wednesday 30 July 2014 (issued every 10 minutes, with the page automatically refreshed every 10 minutes)

About coastal observations | Map of coastal stations | Coastal observations for TAS | Marine services | Other Formats
Station Details ID: 094255 Name: DENNES POINT Lat: -43.06 Lon: 147.36 Height: 5.67 m
Data from the previous 72 hours. | See also: Recent months at Dennes Point
Date/Time
EST
Temp

°C
Wind Pressure Rain
since 9am
mm
Weather Cloud Vis
km
Sea
Height
m
Swell
Dir
 
Speed
knots
Gust
knots
hPa Trend Height
m
Period
s
Dir
30/04:53am 10.4 W 21 32 995.1 - 9.6 - - - - - - -
30/04:30am 10.3 W 21 26 995.1 - 9.6 - - - - - - -
30/04:00am 10.3 W 25 35 994.8 - 9.6 - - - - - - -
30/03:30am 10.3 W 30 42 993.8 - 9.6 - - - - - - -
30/03:00am 9.9 W 29 48 993.1 - 9.6 Recent precip. - - - - - -
30/02:30am 9.1 W 31 46 992.2 - 9.6 - - - - - - -
30/02:26am 8.7 W 29 40 992.3 - 9.6 - - - - - - -
30/02:21am 8.3 W 27 32 992.4 - 9.6 - - - - - - -
30/02:07am 7.9 W 39 50 992.2 - 9.6 - - - - - - -
30/02:00am 8.0 W 40 49 991.5 - 9.4 - - - - - - -
30/01:59am 8.2 W 40 49 991.5 - 9.4 - - - - - - -
30/01:32am 8.2 W 29 40 991.5 - 9.4 - - - - - - -
30/01:30am 8.4 W 29 38 991.5 - 9.4 - - - - - - -
30/01:13am 8.8 W 26 39 991.2 - 9.2 - - - - - - -
30/01:00am 8.4 W 25 31 990.9 - 9.2 - - - - - - -
30/12:45am 8.5 WSW 21 32 991.3 - 9.0 - - - - - - -
30/12:30am 9.3 W 21 27 990.2 - 8.8 - - - - - - -
30/12:00am 8.0 W 24 35 989.7 - 8.8 Recent precip. - - - - - -
 
Date/Time
EST
Temp

°C
Wind Pressure Rain
since 9am
mm
Weather Cloud Vis
km
Sea
Height
m
Swell
Dir
 
Speed
knots
Gust
knots
hPa Trend Height
m
Period
s
Dir
29/11:30pm 9.6 W 30 45 989.0 - 8.6 - - - - - - -
29/11:18pm 9.0 W 33 43 988.6 - 8.6 - - - - - - -
29/11:09pm 8.9 W 29 34 989.3 - 8.6 - - - - - - -
29/11:04pm 9.7 W 40 52 989.6 - 8.0 - - - - - - -
29/11:02pm 10.4 W 28 52 988.9 - 8.0 - - - - - - -
29/11:00pm 10.6 W 26 38 988.4 - 8.0 - - - - - - -
29/10:30pm 11.4 W 26 43 987.6 - 7.8 - - - - - - -
29/10:00pm 11.1 WNW 31 42 987.5 - 7.8 - - - - - - -
29/09:47pm 11.2 W 33 44 987.5 - 7.8 - - - - - - -
29/09:41pm 11.2 W 35 42 987.3 - 7.8 - - - - - - -
29/09:30pm 11.4 WNW 24 45 987.2 - 7.8 - - - - - - -
29/09:22pm 11.8 WNW 23 45 987.0 - 7.8 - - - - - - -
29/09:00pm 10.7 W 22 34 986.5 - 7.8 Recent precip. - - - - - -
29/08:54pm 10.7 WNW 23 34 986.4 - 7.8 - - - - - - -
29/08:43pm 10.1 WNW 19 26 986.7 - 7.8 - - - - - - -
29/08:30pm 9.8 W 31 42 986.6 - 7.8 - - - - - - -
29/08:21pm 9.2 W 28 39 986.6 - 7.6 - - - - - - -
29/08:14pm 9.1 W 29 34 987.4 - 7.6 - - - - - - -
29/08:07pm 9.4 W 39 57 986.6 - 7.4 - - - - - - -
29/08:04pm 10.2 W 22 39 986.8 - 7.2 - - - - - - -
29/08:00pm 10.4 W 22 28 986.5 - 7.2 - - - - - - -
29/07:55pm 10.0 W 24 28 986.0 - 7.2 - - - - - - -
29/07:51pm 10.4 WNW 15 25 986.2 - 7.2 - - - - - - -
29/07:30pm 11.0 WNW 13 19 985.9 - 7.0 - - - - - - -
29/07:00pm 10.9 WNW 18 36 985.3 - 6.8 - - - - - - -
29/06:59pm 10.8 WNW 16 35 985.4 - 6.8 - - - - - - -
29/06:30pm 10.1 NW 13 20 985.0 - 6.8 - - - - - - -
29/06:25pm 10.0 WNW 14 22 985.1 - 6.8 - - - - - - -
29/06:01pm 9.3 W 27 37 985.1 - 6.8 - - - - - - -
29/06:00pm 9.3 W 28 37 985.2 - 6.8 Rain - - - - - -
29/05:59pm 9.2 W 28 37 985.2 - 6.8 - - - - - - -
29/05:37pm 10.0 WSW 30 46 985.4 - 5.6 - - - - - - -
29/05:33pm 10.5 SW 16 33 985.0 - 5.2 - - - - - - -
29/05:30pm 11.1 SW 12 17 984.7 - 5.2 - - - - - - -
29/05:00pm 10.5 NNW 11 18 984.3 - 5.0 - - - - - - -
29/04:30pm 10.7 NNW 14 20 984.2 - 3.6 - - - - - - -
29/04:00pm 11.1 NNW 11 16 984.3 - 3.6 - - - - - - -
29/03:30pm 11.5 NNW 13 17 984.9 - 3.0 - - - - - - -
29/03:00pm 11.7 WNW 12 19 985.6 - 2.8 - - - - - - -
29/02:30pm 11.5 WNW 11 21 986.2 - 2.8 - - - - - - -
29/02:00pm 12.2 W 10 21 986.4 - 2.8 - - - - - - -
29/01:30pm 11.6 W 7 13 986.9 - 2.8 - - - - - - -
29/01:00pm 11.3 WNW 10 17 988.2 - 2.8 - - - - - - -
29/12:30pm 10.5 WNW 13 23 989.0 - 2.8 - - - - - - -
29/12:00pm 9.7 WNW 27 37 989.8 - 2.8 Rain - - - - - -
29/11:47am 9.9 WNW 17 30 989.4 - 2.2 - - - - - - -
29/11:30am 10.4 W 15 24 989.7 - 2.0 - - - - - - -
29/11:00am 11.4 W 24 30 989.4 - 1.8 - - - - - - -
29/10:30am 13.0 WNW 24 36 988.7 - 1.8 - - - - - - -
29/10:17am 12.7 WNW 17 42 988.9 - 1.8 - - - - - - -
29/10:15am 12.6 WNW 15 29 988.9 - 1.8 - - - - - - -
29/10:00am 12.1 WNW 16 24 989.2 - 1.8 - - - - - - -
29/09:40am 11.6 NW 17 27 989.6 - 1.8 - - - - - - -
29/09:38am 11.5 NNW 15 21 989.6 - 1.8 - - - - - - -
29/09:30am 11.3 WNW 20 31 989.7 - 1.8 - - - - - - -
29/09:26am 11.2 WNW 21 31 989.9 - 1.6 - - - - - - -
29/09:22am 11.1 W 22 27 990.0 - 1.6 - - - - - - -
29/09:04am 12.3 NW 15 27 990.3 - 0.2 - - - - - - -
29/09:00am 12.1 NW 13 27 990.2 - 3.2 Rain - - - - - -
29/08:30am 10.9 N 15 21 989.3 - 2.6 - - - - - - -
29/08:00am 11.0 N 14 19 989.9 - 2.6 - - - - - - -
29/07:30am 10.9 NNW 15 19 990.5 - 2.0 - - - - - - -
29/07:00am 11.4 NNW 18 27 990.8 - 1.4 - - - - - - -
29/06:40am 13.2 NNW 18 30 991.2 - 0.0 - - - - - - -
29/06:30am 12.8 N 18 24 990.2 - 0.0 - - - - - - -
29/06:00am 12.8 N 16 24 990.2 - 0.0 - - - - - - -
29/05:30am 12.8 N 13 21 991.4 - 0.0 - - - - - - -
29/05:00am 12.9 N 18 25 992.1 - 0.0 - - - - - - -
29/04:30am 12.6 N 13 21 992.8 - 0.0 - - - - - - -
29/04:00am 12.6 N 15 18 993.6 - 0.0 - - - - - - -
29/03:49am 13.1 N 15 26 993.9 - 0.0 - - - - - - -
29/03:30am 12.7 N 12 18 994.5 - 0.0 - - - - - - -
29/03:00am 12.5 N 13 19 994.8 - 0.0 - - - - - - -
29/02:30am 12.5 N 13 19 995.6 - 0.0 - - - - - - -
29/02:00am 12.4 N 15 21 996.1 - 0.0 - - - - - - -
29/01:30am 12.4 N 19 23 996.3 - 0.0 - - - - - - -
29/01:00am 12.2 N 8 17 997.0 - 0.0 - - - - - - -
29/12:30am 12.3 W 5 10 998.1 - 0.0 - - - - - - -
29/12:00am 12.4 N 11 16 998.5 - 0.0 - - - - - - -
 
Date/Time
EST
Temp

°C
Wind Pressure Rain
since 9am
mm
Weather Cloud Vis
km
Sea
Height
m
Swell
Dir
 
Speed
knots
Gust
knots
hPa Trend Height
m
Period
s
Dir
28/11:30pm 12.1 N 12 15 998.6 - 0.0 - - - - - - -
28/11:00pm 12.3 N 11 17 998.8 - 0.0 - - - - - - -
28/10:30pm 12.4 N 11 16 999.0 - 0.0 - - - - - - -
28/10:00pm 12.3 N 13 16 999.6 - 0.0 - - - - - - -
28/09:30pm 12.1 N 13 18 999.7 - 0.0 - - - - - - -
28/09:00pm 12.0 NNW 8 15 1000.2 - 0.0 - - - - - - -
28/08:30pm 12.0 N 13 16 1000.5 - 0.0 - - - - - - -
28/08:00pm 12.4 ENE 4 7 1001.2 - 0.0 - - - - - - -
28/07:30pm 12.5 E 2 5 1001.0 - 0.0 - - - - - - -
28/07:00pm 12.5 W 4 9 1001.8 - 0.0 - - - - - - -
28/06:30pm 13.1 W 7 12 1001.3 - 0.0 - - - - - - -
28/06:00pm 13.7 N 10 15 1000.8 - 0.0 - - - - - - -
28/05:30pm 13.5 N 9 16 1000.7 - 0.0 - - - - - - -
28/05:00pm 13.5 NW 4 7 1000.9 - 0.0 - - - - - - -
28/04:30pm 13.9 W 7 15 1001.3 - 0.0 - - - - - - -
28/04:00pm 15.9 N 4 9 1001.4 - 0.0 - - - - - - -
28/03:30pm 15.4 NW 6 12 1001.3 - 0.0 - - - - - - -
28/03:00pm 16.0 NW 3 5 1001.8 - 0.0 - - - - - - -
28/02:30pm 15.2 N 6 14 1001.8 - 0.0 - - - - - - -
28/02:00pm 15.0 WNW 6 11 1002.1 - 0.0 - - - - - - -
28/01:30pm 15.5 N 7 17 1002.6 - 0.0 - - - - - - -
28/01:00pm 15.5 NW 8 17 1003.1 - 0.0 - - - - - - -
28/12:30pm 14.3 WNW 6 11 1003.6 - 0.0 - - - - - - -
28/12:00pm 13.5 E 3 7 1004.1 - 0.0 - - - - - - -
28/11:30am 13.0 SW 4 8 1004.7 - 0.0 - - - - - - -
28/11:00am 13.1 WNW 14 22 1005.3 - 0.0 - - - - - - -
28/10:59am 13.3 WNW 16 22 1005.3 - 0.0 - - - - - - -
28/10:30am 13.6 WNW 5 11 1005.3 - 0.0 - - - - - - -
28/10:00am 13.4 WNW 7 10 1005.4 - 0.0 - - - - - - -
28/09:30am 13.1 NNW 6 10 1005.4 - 0.0 - - - - - - -
28/09:00am 12.9 N 6 10 1005.3 - 0.0 - - - - - - -
28/08:30am 13.1 N 5 7 1005.2 - 0.0 - - - - - - -
28/08:00am 12.7 N 5 7 1005.4 - 0.0 - - - - - - -
28/07:30am 12.3 NNW 4 5 1005.3 - 0.0 - - - - - - -
28/07:00am 11.7 N 4 8 1005.5 - 0.0 - - - - - - -
28/06:30am 12.1 N 5 6 1005.7 - 0.0 - - - - - - -
28/06:00am 12.4 NNE 4 6 1005.7 - 0.0 - - - - - - -
28/05:30am 11.9 NNE 4 7 1005.4 - 0.0 - - - - - - -
28/05:00am 12.3 N 7 10 1005.7 - 0.0 - - - - - - -
28/04:30am 13.0 N 8 12 1005.7 - 0.0 - - - - - - -
28/04:00am 12.8 NNW 8 10 1006.1 - 0.0 - - - - - - -
28/03:30am 12.8 N 10 13 1006.1 - 0.0 - - - - - - -
28/03:00am 12.6 N 9 13 1006.5 - 0.0 - - - - - - -
28/02:30am 12.4 N 7 12 1007.0 - 0.0 - - - - - - -
28/02:00am 12.4 NNW 10 12 1007.5 - 0.0 - - - - - - -
28/01:30am 12.5 NNW 4 6 1007.7 - 0.0 - - - - - - -
28/01:00am 12.5 NNW 6 9 1007.9 - 0.0 - - - - - - -
28/12:30am 12.5 NNW 8 10 1008.4 - 0.0 - - - - - - -
28/12:00am 12.1 N 4 6 1008.7 - 0.0 - - - - - - -
 
Date/Time
EST
Temp

°C
Wind Pressure Rain
since 9am
mm
Weather Cloud Vis
km
Sea
Height
m
Swell
Dir
 
Speed
knots
Gust
knots
hPa Trend Height
m
Period
s
Dir
27/11:30pm 11.9 N 7 9 1009.2 - 0.0 - - - - - - -
27/11:00pm 12.3 N 10 13 1009.5 - 0.0 - - - - - - -
27/10:30pm 12.3 NNE 11 14 1010.1 - 0.0 - - - - - - -
27/10:00pm 12.5 N 10 14 1010.7 - 0.0 - - - - - - -
27/09:30pm 12.5 NNW 9 10 1010.9 - 0.0 - - - - - - -
27/09:00pm 12.5 NNW 9 12 1011.0 - 0.0 - - - - - - -
27/08:30pm 11.8 N 8 10 1011.1 - 0.0 - - - - - - -
27/08:00pm 11.7 NNW 9 11 1011.2 - 0.0 - - - - - - -
27/07:30pm 11.7 N 7 9 1011.8 - 0.0 - - - - - - -
27/07:00pm 12.0 N 8 10 1012.1 - 0.0 - - - - - - -
27/06:30pm 12.3 N 5 6 1012.2 - 0.0 - - - - - - -
27/06:00pm 12.1 N 5 8 1012.1 - 0.0 - - - - - - -
27/05:30pm 12.2 N 5 6 1012.3 - 0.0 - - - - - - -
27/05:00pm 12.4 N 3 4 1012.5 - 0.0 - - - - - - -
27/04:30pm 12.7 N 4 4 1012.4 - 0.0 - - - - - - -
27/04:00pm 13.3 N 6 8 1012.6 - 0.0 - - - - - - -
27/03:30pm 13.3 NNW 7 9 1013.0 - 0.0 - - - - - - -
27/03:00pm 12.5 N 5 9 1013.1 - 0.0 - - - - - - -
27/02:30pm 12.4 N 5 9 1013.2 - 0.0 - - - - - - -
27/02:00pm 12.4 N 8 10 1013.6 - 0.0 - - - - - - -
27/01:30pm 11.8 NNE 12 14 1014.1 - 0.0 - - - - - - -
27/01:00pm 12.1 NNE 6 8 1014.6 - 0.0 - - - - - - -
27/12:30pm 12.0 NNE 3 5 1015.8 - 0.0 - - - - - - -
27/12:00pm 11.0 N 8 10 1016.4 - 0.0 - - - - - - -
27/11:30am 10.6 N 4 7 1016.8 - 0.0 - - - - - - -
27/11:00am 10.1 N 9 11 1017.4 - 0.0 - - - - - - -
27/10:30am 9.3 N 14 16 1017.7 - 0.0 - - - - - - -
27/10:00am 9.0 NNE 9 11 1018.5 - 0.0 - - - - - - -
27/09:30am 8.7 N 5 5 1019.2 - 0.0 - - - - - - -
27/09:00am 8.2 ENE 4 5 1019.3 - 0.4 - - - - - - -
27/08:30am 7.4 S 1 3 1019.5 - 0.4 - - - - - - -
27/08:00am 6.5 SSW 3 4 1019.4 - 0.4 - - - - - - -
27/07:30am 6.2 WSW 2 4 1019.3 - 0.4 - - - - - - -
27/07:00am 5.9 SSW 5 6 1019.2 - 0.4 - - - - - - -
27/06:30am 6.1 CALM 0 3 1019.2 - 0.4 - - - - - - -
27/06:00am 7.2 N 1 2 1019.1 - 0.4 Recent precip. - - - - - -
27/05:30am 7.7 NNE 5 7 1019.0 - 0.4 - - - - - - -
27/05:00am 6.4 CALM 0 1 1019.3 - 0.2 - - - - - - -

Other Formats:

Comma delimited format used in spreadsheet applications
http://www.bom.gov.au/fwo/IDT60701/IDT60701.94988.axf

JavaScript Object Notation format (JSON) in row-major order
http://www.bom.gov.au/fwo/IDT60701/IDT60701.94988.json